createdAt,value
2018-09-23T00:00:04.571Z,11.01
2018-09-23T00:01:04.518Z,11.08
2018-09-23T00:02:04.465Z,11.07
2018-09-23T00:03:04.439Z,11.12
2018-09-23T00:04:04.362Z,11.08
2018-09-23T00:05:04.312Z,11.19
2018-09-23T00:06:04.261Z,11.20
2018-09-23T00:07:04.212Z,11.26
2018-09-23T00:08:04.183Z,11.26
2018-09-23T00:09:04.108Z,11.23
2018-09-23T00:10:04.057Z,11.30
2018-09-23T00:11:04.009Z,11.37
2018-09-23T00:12:03.956Z,11.37
2018-09-23T00:13:03.928Z,11.37
2018-09-23T00:14:03.854Z,11.38
2018-09-23T00:15:03.806Z,11.38
2018-09-23T00:16:03.752Z,11.40
2018-09-23T00:17:03.701Z,11.35
2018-09-23T00:18:03.671Z,11.43
2018-09-23T00:19:03.598Z,11.47
2018-09-23T00:20:03.553Z,11.44
2018-09-23T00:21:03.495Z,11.44
2018-09-23T00:22:03.476Z,11.46
2018-09-23T00:23:03.419Z,11.43
2018-09-23T00:24:03.345Z,11.47
2018-09-23T00:25:03.297Z,11.43
2018-09-23T00:26:03.245Z,11.38
2018-09-23T00:27:03.191Z,11.51
2018-09-23T00:28:03.162Z,11.44
2018-09-23T00:29:03.090Z,11.32
2018-09-23T00:30:03.038Z,11.33
2018-09-23T00:31:02.991Z,11.32
2018-09-23T00:32:02.935Z,11.32
2018-09-23T00:33:02.908Z,11.43
2018-09-23T00:34:02.836Z,11.41
2018-09-23T00:35:02.783Z,11.50
2018-09-23T00:36:02.734Z,11.40
2018-09-23T00:37:02.680Z,11.30
2018-09-23T00:38:02.636Z,11.35
2018-09-23T00:39:02.604Z,11.30
2018-09-23T00:40:02.524Z,11.37
2018-09-23T00:41:02.482Z,11.37
2018-09-23T00:42:02.430Z,11.37
2018-09-23T00:43:02.374Z,11.33
2018-09-23T00:44:02.346Z,11.40
2018-09-23T00:45:02.283Z,11.35
2018-09-23T00:46:02.224Z,11.26
2018-09-23T00:47:02.175Z,11.25
2018-09-23T00:48:02.119Z,11.28
2018-09-23T00:49:02.092Z,11.14
2018-09-23T00:50:02.020Z,11.23
2018-09-23T00:51:01.971Z,11.22
2018-09-23T00:52:01.915Z,11.22
2018-09-23T00:53:01.862Z,11.26
2018-09-23T00:54:01.837Z,11.22
2018-09-23T00:55:01.765Z,11.19
2018-09-23T00:56:01.712Z,11.17
2018-09-23T00:57:01.661Z,11.19
2018-09-23T00:58:01.612Z,11.19
2018-09-23T00:59:01.588Z,11.23
2018-09-23T01:00:01.510Z,11.23
2018-09-23T01:01:01.459Z,11.07
2018-09-23T01:02:01.408Z,11.17
2018-09-23T01:03:01.352Z,11.25
2018-09-23T01:04:01.339Z,11.28
2018-09-23T01:05:01.257Z,11.19
2018-09-23T01:06:01.203Z,11.20
2018-09-23T01:07:01.152Z,11.20
2018-09-23T01:08:01.104Z,11.12
2018-09-23T01:09:01.077Z,11.19
2018-09-23T01:10:00.995Z,11.22
2018-09-23T01:11:00.947Z,11.22
2018-09-23T01:12:00.892Z,11.26
2018-09-23T01:13:00.844Z,11.26
2018-09-23T01:14:00.816Z,11.25
2018-09-23T01:15:00.745Z,11.22
2018-09-23T01:16:00.690Z,11.29
2018-09-23T01:17:00.642Z,11.35
2018-09-23T01:18:00.590Z,11.30
2018-09-23T01:19:00.569Z,11.30
2018-09-23T01:20:00.490Z,11.22
2018-09-23T01:21:00.434Z,11.25
2018-09-23T01:22:00.385Z,11.25
2018-09-23T01:23:00.335Z,11.33
2018-09-23T01:24:00.314Z,11.30
2018-09-23T01:25:00.237Z,11.30
2018-09-23T01:26:00.193Z,11.32
2018-09-23T01:27:00.133Z,11.37
2018-09-23T01:28:00.096Z,11.40
2018-09-23T01:29:00.061Z,11.37
2018-09-23T01:29:59.989Z,11.37
2018-09-23T01:30:59.932Z,11.29
2018-09-23T01:31:59.879Z,11.33
2018-09-23T01:32:59.823Z,11.33
2018-09-23T01:33:59.819Z,11.37
2018-09-23T01:34:59.728Z,11.41
2018-09-23T01:35:59.673Z,11.44
2018-09-23T01:36:59.622Z,11.47
2018-09-23T01:37:59.577Z,11.47
2018-09-23T01:38:59.551Z,11.40
2018-09-23T01:39:59.473Z,11.44
2018-09-23T01:40:59.426Z,11.40
2018-09-23T01:41:59.369Z,11.23
2018-09-23T01:42:59.315Z,11.28
2018-09-23T01:43:59.306Z,11.32
2018-09-23T01:44:59.212Z,11.26
2018-09-23T01:45:59.174Z,11.28
2018-09-23T01:46:59.111Z,11.30
2018-09-23T01:47:59.058Z,11.37
2018-09-23T01:48:59.010Z,11.32
2018-09-23T01:49:58.992Z,11.37
2018-09-23T01:50:58.921Z,11.37
2018-09-23T01:51:58.864Z,11.30
2018-09-23T01:52:58.806Z,11.29
2018-09-23T01:53:58.758Z,11.30
2018-09-23T01:54:58.740Z,11.32
2018-09-23T01:55:58.656Z,11.35
2018-09-23T01:56:58.602Z,11.33
2018-09-23T01:57:58.564Z,11.35
2018-09-23T01:58:58.512Z,11.37
2018-09-23T01:59:58.483Z,11.37
2018-09-23T02:00:58.401Z,11.43
2018-09-23T02:01:58.360Z,11.48
2018-09-23T02:02:58.305Z,11.33
2018-09-23T02:03:58.244Z,11.43
2018-09-23T02:04:58.224Z,11.35
2018-09-23T02:05:58.161Z,11.43
2018-09-23T02:06:58.098Z,11.38
2018-09-23T02:07:58.043Z,11.41
2018-09-23T02:08:57.994Z,11.40
2018-09-23T02:09:57.963Z,11.38
2018-09-23T02:10:57.890Z,11.38
2018-09-23T02:11:57.845Z,11.37
2018-09-23T02:12:57.793Z,11.38
2018-09-23T02:13:57.736Z,11.43
2018-09-23T02:14:57.720Z,11.37
2018-09-23T02:15:57.648Z,11.40
2018-09-23T02:16:57.591Z,11.43
2018-09-23T02:17:57.537Z,11.48
2018-09-23T02:18:57.483Z,11.47
2018-09-23T02:19:57.479Z,11.43
2018-09-23T02:20:57.390Z,11.47
2018-09-23T02:21:57.330Z,11.44
2018-09-23T02:22:57.276Z,11.47
2018-09-23T02:23:57.227Z,11.51
2018-09-23T02:24:57.201Z,11.47
2018-09-23T02:25:57.130Z,11.47
2018-09-23T02:26:57.075Z,11.43
2018-09-23T02:27:57.032Z,11.40
2018-09-23T02:28:56.996Z,11.38
2018-09-23T02:29:56.985Z,11.43
2018-09-23T02:30:56.871Z,11.43
2018-09-23T02:31:56.829Z,11.37
2018-09-23T02:32:56.771Z,11.28
2018-09-23T02:33:56.722Z,11.38
2018-09-23T02:34:56.666Z,11.35
2018-09-23T02:35:56.663Z,11.37
2018-09-23T02:36:56.564Z,11.38
2018-09-23T02:37:56.517Z,11.29
2018-09-23T02:38:56.464Z,11.37
2018-09-23T02:39:56.415Z,11.32
2018-09-23T02:40:56.382Z,11.35
2018-09-23T02:41:56.310Z,11.40
2018-09-23T02:42:56.278Z,11.33
2018-09-23T02:43:56.216Z,11.35
2018-09-23T02:44:56.160Z,11.37
2018-09-23T02:45:56.154Z,11.38
2018-09-23T02:46:56.060Z,11.44
2018-09-23T02:47:56.008Z,11.41
2018-09-23T02:48:55.970Z,11.41
2018-09-23T02:49:55.919Z,11.47
2018-09-23T02:50:55.912Z,11.40
2018-09-23T02:51:55.825Z,11.41
2018-09-23T02:52:55.781Z,11.40
2018-09-23T02:53:55.711Z,11.41
2018-09-23T02:54:55.653Z,11.40
2018-09-23T02:55:55.628Z,11.38
2018-09-23T02:56:55.555Z,11.40
2018-09-23T02:57:55.504Z,11.30
2018-09-23T02:58:55.452Z,11.38
2018-09-23T02:59:55.400Z,11.43
2018-09-23T03:00:55.391Z,11.38
2018-09-23T03:01:55.302Z,11.32
2018-09-23T03:02:55.247Z,11.35
2018-09-23T03:03:55.199Z,11.35
2018-09-23T03:04:55.145Z,11.35
2018-09-23T03:05:55.118Z,11.40
2018-09-23T03:06:55.054Z,11.38
2018-09-23T03:07:55.000Z,11.30
2018-09-23T03:08:54.951Z,11.30
2018-09-23T03:09:54.896Z,11.37
2018-09-23T03:10:54.876Z,11.30
2018-09-23T03:11:54.787Z,11.25
2018-09-23T03:12:54.747Z,11.19
2018-09-23T03:13:54.681Z,11.25
2018-09-23T03:14:54.644Z,11.28
2018-09-23T03:15:54.630Z,11.25
2018-09-23T03:16:54.540Z,11.29
2018-09-23T03:17:54.506Z,11.19
2018-09-23T03:18:54.441Z,11.30
2018-09-23T03:19:54.383Z,11.26
2018-09-23T03:20:54.341Z,11.23
2018-09-23T03:21:54.309Z,11.23
2018-09-23T03:22:54.226Z,11.33
2018-09-23T03:23:54.183Z,11.33
2018-09-23T03:24:54.131Z,11.29
2018-09-23T03:25:54.085Z,11.35
2018-09-23T03:26:54.062Z,11.43
2018-09-23T03:27:53.972Z,11.32
2018-09-23T03:28:53.929Z,11.32
2018-09-23T03:29:53.870Z,11.33
2018-09-23T03:30:53.835Z,11.35
2018-09-23T03:31:53.793Z,11.32
2018-09-23T03:32:53.724Z,11.32
2018-09-23T03:33:53.672Z,11.33
2018-09-23T03:34:53.628Z,11.35
2018-09-23T03:35:53.568Z,11.33
2018-09-23T03:36:53.538Z,11.32
2018-09-23T03:37:53.466Z,11.37
2018-09-23T03:38:53.411Z,11.40
2018-09-23T03:39:53.365Z,11.40
2018-09-23T03:40:53.323Z,11.33
2018-09-23T03:41:53.285Z,11.40
2018-09-23T03:42:53.215Z,11.41
2018-09-23T03:43:53.175Z,11.41
2018-09-23T03:44:53.105Z,11.46
2018-09-23T03:45:53.065Z,11.35
2018-09-23T03:46:53.037Z,11.38
2018-09-23T03:47:52.960Z,11.40
2018-09-23T03:48:52.902Z,11.40
2018-09-23T03:49:52.855Z,11.40
2018-09-23T03:50:52.804Z,11.41
2018-09-23T03:51:52.797Z,11.33
2018-09-23T03:52:52.701Z,11.32
2018-09-23T03:53:52.650Z,11.28
2018-09-23T03:54:52.599Z,11.37
2018-09-23T03:55:52.544Z,11.37
2018-09-23T03:56:52.523Z,11.37
2018-09-23T03:57:52.468Z,11.32
2018-09-23T03:58:52.413Z,11.30
2018-09-23T03:59:52.344Z,11.37
2018-09-23T04:00:52.296Z,11.30
2018-09-23T04:01:52.275Z,11.32
2018-09-23T04:02:52.205Z,11.35
2018-09-23T04:03:52.141Z,11.30
2018-09-23T04:04:52.085Z,11.37
2018-09-23T04:05:52.037Z,11.38
2018-09-23T04:06:52.023Z,11.28
2018-09-23T04:07:51.941Z,11.32
2018-09-23T04:08:51.891Z,11.32
2018-09-23T04:09:51.847Z,11.30
2018-09-23T04:10:51.790Z,11.41
2018-09-23T04:11:51.828Z,11.32
2018-09-23T04:12:51.686Z,11.43
2018-09-23T04:13:51.633Z,11.40
2018-09-23T04:14:51.602Z,11.32
2018-09-23T04:15:51.546Z,11.35
2018-09-23T04:16:51.528Z,11.38
2018-09-23T04:17:51.452Z,11.37
2018-09-23T04:18:51.380Z,11.41
2018-09-23T04:19:51.360Z,11.37
2018-09-23T04:20:51.280Z,11.43
2018-09-23T04:21:51.253Z,11.41
2018-09-23T04:22:51.189Z,11.38
2018-09-23T04:23:51.133Z,11.38
2018-09-23T04:24:51.080Z,11.40
2018-09-23T04:25:51.028Z,11.37
2018-09-23T04:26:51.027Z,11.37
2018-09-23T04:27:50.925Z,11.43
2018-09-23T04:28:50.953Z,11.38
2018-09-23T04:29:50.842Z,11.41
2018-09-23T04:30:50.775Z,11.40
2018-09-23T04:31:50.760Z,11.38
2018-09-23T04:32:50.667Z,11.44
2018-09-23T04:33:50.644Z,11.35
2018-09-23T04:34:50.603Z,11.32
2018-09-23T04:35:50.569Z,11.37
2018-09-23T04:36:50.530Z,11.33
2018-09-23T04:37:50.451Z,11.35
2018-09-23T04:38:50.366Z,11.32
2018-09-23T04:39:50.346Z,11.26
2018-09-23T04:40:50.267Z,11.23
2018-09-23T04:41:50.243Z,11.29
2018-09-23T04:42:50.176Z,11.23
2018-09-23T04:43:50.114Z,11.26
2018-09-23T04:44:50.093Z,11.23
2018-09-23T04:45:50.006Z,11.26
2018-09-23T04:46:50.001Z,11.37
2018-09-23T04:47:49.913Z,11.35
2018-09-23T04:48:49.866Z,11.32
2018-09-23T04:49:49.808Z,11.32
2018-09-23T04:50:49.757Z,11.33
2018-09-23T04:51:49.706Z,11.37
2018-09-23T04:52:49.688Z,11.32
2018-09-23T04:53:49.612Z,11.28
2018-09-23T04:54:49.572Z,11.29
2018-09-23T04:55:49.526Z,11.20
2018-09-23T04:56:49.460Z,11.19
2018-09-23T04:57:49.436Z,11.17
2018-09-23T04:58:49.347Z,11.28
2018-09-23T04:59:49.305Z,11.26
2018-09-23T05:00:49.244Z,11.25
2018-09-23T05:01:49.191Z,11.32
2018-09-23T05:02:49.166Z,11.30
2018-09-23T05:03:49.089Z,11.30
2018-09-23T05:04:49.037Z,11.33
2018-09-23T05:05:48.989Z,11.35
2018-09-23T05:06:48.949Z,11.30
2018-09-23T05:07:48.911Z,11.40
2018-09-23T05:08:48.841Z,11.33
2018-09-23T05:09:48.786Z,11.33
2018-09-23T05:10:48.730Z,11.33
2018-09-23T05:11:48.689Z,11.33
2018-09-23T05:12:48.660Z,11.30
2018-09-23T05:13:48.590Z,11.28
2018-09-23T05:14:48.555Z,11.38
2018-09-23T05:15:48.477Z,11.35
2018-09-23T05:16:48.425Z,11.29
2018-09-23T05:17:48.409Z,11.35
2018-09-23T05:18:48.327Z,11.38
2018-09-23T05:19:48.274Z,11.41
2018-09-23T05:20:48.234Z,11.37
2018-09-23T05:21:48.170Z,11.28
2018-09-23T05:22:48.160Z,11.28
2018-09-23T05:23:48.073Z,11.25
2018-09-23T05:24:48.022Z,11.26
2018-09-23T05:25:47.966Z,11.15
2018-09-23T05:26:47.944Z,11.22
2018-09-23T05:27:47.903Z,11.20
2018-09-23T05:28:47.829Z,11.11
2018-09-23T05:29:47.788Z,11.22
2018-09-23T05:30:47.716Z,11.15
2018-09-23T05:31:47.666Z,11.19
2018-09-23T05:32:47.661Z,11.29
2018-09-23T05:33:47.586Z,11.25
2018-09-23T05:34:47.520Z,11.25
2018-09-23T05:35:47.458Z,11.25
2018-09-23T05:36:47.425Z,11.22
2018-09-23T05:37:47.412Z,11.26
2018-09-23T05:38:47.320Z,11.20
2018-09-23T05:39:47.287Z,11.28
2018-09-23T05:40:47.225Z,11.26
2018-09-23T05:41:47.159Z,11.25
2018-09-23T05:42:47.149Z,11.26
2018-09-23T05:43:47.053Z,11.26
2018-09-23T05:44:47.017Z,11.26
2018-09-23T05:45:46.969Z,11.25
2018-09-23T05:46:46.900Z,11.29
2018-09-23T05:47:46.876Z,11.33
2018-09-23T05:48:46.813Z,11.41
2018-09-23T05:49:46.770Z,11.37
2018-09-23T05:50:46.717Z,11.30
2018-09-23T05:51:46.650Z,11.29
2018-09-23T05:52:46.670Z,11.32
2018-09-23T05:53:46.545Z,11.38
2018-09-23T05:54:46.515Z,11.37
2018-09-23T05:55:46.498Z,11.40
2018-09-23T05:56:46.439Z,11.44
2018-09-23T05:57:46.371Z,11.43
2018-09-23T05:58:46.291Z,11.50
2018-09-23T05:59:46.243Z,11.50
2018-09-23T06:00:46.206Z,11.48
2018-09-23T06:01:46.151Z,11.43
2018-09-23T06:02:46.119Z,11.46
2018-09-23T06:03:46.035Z,11.43
2018-09-23T06:04:46.030Z,11.51
2018-09-23T06:05:45.944Z,11.43
2018-09-23T06:06:45.890Z,11.47
2018-09-23T06:07:45.869Z,11.41
2018-09-23T06:08:45.826Z,11.46
2018-09-23T06:09:45.728Z,11.44
2018-09-23T06:10:45.685Z,11.43
2018-09-23T06:11:45.631Z,11.46
2018-09-23T06:12:45.640Z,11.44
2018-09-23T06:13:45.544Z,11.47
2018-09-23T06:14:45.507Z,11.50
2018-09-23T06:15:45.444Z,11.53
2018-09-23T06:16:45.391Z,11.50
2018-09-23T06:17:45.325Z,11.50
2018-09-23T06:18:45.315Z,11.50
2018-09-23T06:19:45.243Z,11.48
2018-09-23T06:20:45.173Z,11.47
2018-09-23T06:21:45.133Z,11.47
2018-09-23T06:22:45.098Z,11.50
2018-09-23T06:23:45.057Z,11.46
2018-09-23T06:24:44.968Z,11.51
2018-09-23T06:25:44.913Z,11.50
2018-09-23T06:26:44.883Z,11.50
2018-09-23T06:27:45.225Z,11.46
2018-09-23T06:28:45.674Z,11.51
2018-09-23T06:29:44.723Z,11.48
2018-09-23T06:30:44.676Z,11.58
2018-09-23T06:31:44.621Z,11.56
2018-09-23T06:32:44.570Z,11.62
2018-09-23T06:33:44.532Z,11.59
2018-09-23T06:34:44.464Z,11.62
2018-09-23T06:35:44.426Z,11.61
2018-09-23T06:36:44.354Z,11.61
2018-09-23T06:37:44.306Z,11.66
2018-09-23T06:38:44.293Z,11.63
2018-09-23T06:39:44.203Z,11.68
2018-09-23T06:40:44.156Z,11.59
2018-09-23T06:41:44.102Z,11.58
2018-09-23T06:42:44.054Z,11.79
2018-09-23T06:43:44.047Z,11.72
2018-09-23T06:44:43.951Z,11.76
2018-09-23T06:45:43.922Z,11.76
2018-09-23T06:46:43.854Z,11.71
2018-09-23T06:47:43.799Z,11.63
2018-09-23T06:48:43.781Z,11.63
2018-09-23T06:49:43.706Z,11.54
2018-09-23T06:50:43.652Z,11.51
2018-09-23T06:51:43.599Z,11.53
2018-09-23T06:52:43.557Z,11.50
2018-09-23T06:53:43.546Z,11.48
2018-09-23T06:54:43.455Z,11.51
2018-09-23T06:55:43.399Z,11.56
2018-09-23T06:56:43.355Z,11.48
2018-09-23T06:57:43.321Z,11.54
2018-09-23T06:58:43.297Z,11.62
2018-09-23T06:59:43.190Z,11.63
2018-09-23T07:00:43.150Z,11.66
2018-09-23T07:01:43.093Z,11.58
2018-09-23T07:02:43.043Z,11.53
2018-09-23T07:03:43.017Z,11.68
2018-09-23T07:04:42.985Z,11.65
2018-09-23T07:05:42.891Z,11.71
2018-09-23T07:06:42.845Z,11.77
2018-09-23T07:07:42.792Z,11.69
2018-09-23T07:08:42.773Z,11.74
2018-09-23T07:09:42.688Z,11.79
2018-09-23T07:10:42.633Z,11.65
2018-09-23T07:11:42.586Z,11.54
2018-09-23T07:12:42.533Z,11.62
2018-09-23T07:13:42.515Z,11.61
2018-09-23T07:14:42.429Z,11.69
2018-09-23T07:15:42.386Z,11.63
2018-09-23T07:16:42.329Z,11.54
2018-09-23T07:17:42.277Z,11.71
2018-09-23T07:18:42.253Z,11.62
2018-09-23T07:19:42.175Z,11.63
2018-09-23T07:20:42.133Z,11.62
2018-09-23T07:21:42.075Z,11.56
2018-09-23T07:22:42.032Z,11.62
2018-09-23T07:23:42.033Z,11.61
2018-09-23T07:24:41.929Z,11.54
2018-09-23T07:25:41.875Z,11.69
2018-09-23T07:26:41.826Z,11.68
2018-09-23T07:27:41.778Z,11.76
2018-09-23T07:28:41.751Z,11.68
2018-09-23T07:29:41.673Z,11.86
2018-09-23T07:30:41.630Z,11.74
2018-09-23T07:31:41.566Z,11.77
2018-09-23T07:32:41.521Z,11.77
2018-09-23T07:33:41.496Z,11.71
2018-09-23T07:34:41.419Z,11.65
2018-09-23T07:35:41.386Z,11.77
2018-09-23T07:36:41.334Z,11.77
2018-09-23T07:37:41.274Z,11.77
2018-09-23T07:38:41.262Z,11.95
2018-09-23T07:39:41.204Z,11.88
2018-09-23T07:40:41.115Z,11.86
2018-09-23T07:41:41.061Z,11.95
2018-09-23T07:42:41.012Z,11.90
2018-09-23T07:43:40.964Z,11.91
2018-09-23T07:44:40.935Z,11.86
2018-09-23T07:45:40.869Z,11.95
2018-09-23T07:46:40.814Z,12.00
2018-09-23T07:47:40.760Z,11.99
2018-09-23T07:48:40.717Z,12.03
2018-09-23T07:49:40.683Z,12.07
2018-09-23T07:50:40.623Z,12.10
2018-09-23T07:51:40.564Z,12.05
2018-09-23T07:52:40.509Z,12.06
2018-09-23T07:53:40.473Z,12.06
2018-09-23T07:54:40.429Z,12.07
2018-09-23T07:55:40.357Z,12.10
2018-09-23T07:56:40.314Z,12.09
2018-09-23T07:57:40.259Z,12.15
2018-09-23T07:58:40.208Z,12.14
2018-09-23T07:59:40.209Z,12.09
2018-09-23T08:00:40.113Z,12.09
2018-09-23T08:01:40.055Z,12.07
2018-09-23T08:02:40.008Z,12.07
2018-09-23T08:03:39.956Z,11.99
2018-09-23T08:04:39.926Z,12.02
2018-09-23T08:05:39.856Z,12.07
2018-09-23T08:06:39.812Z,12.03
2018-09-23T08:07:39.749Z,12.07
2018-09-23T08:08:39.708Z,12.03
2018-09-23T08:09:39.686Z,12.05
2018-09-23T08:10:39.599Z,12.06
2018-09-23T08:11:39.548Z,12.09
2018-09-23T08:12:39.609Z,12.09
2018-09-23T08:13:39.575Z,12.13
2018-09-23T08:14:39.764Z,12.10
2018-09-23T08:15:39.352Z,12.07
2018-09-23T08:16:39.303Z,12.05
2018-09-23T08:17:39.255Z,12.18
2018-09-23T08:18:39.195Z,12.09
2018-09-23T08:19:39.278Z,12.15
2018-09-23T08:20:39.161Z,12.21
2018-09-23T08:21:39.045Z,12.17
2018-09-23T08:22:39.001Z,12.22
2018-09-23T08:23:38.949Z,12.07
2018-09-23T08:24:38.928Z,12.21
2018-09-23T08:25:38.878Z,12.10
2018-09-23T08:26:38.859Z,12.14
2018-09-23T08:27:38.745Z,12.09
2018-09-23T08:28:38.688Z,12.20
2018-09-23T08:29:38.682Z,12.22
2018-09-23T08:30:38.617Z,12.17
2018-09-23T08:31:38.541Z,12.24
2018-09-23T08:32:38.491Z,12.22
2018-09-23T08:33:38.454Z,12.24
2018-09-23T08:34:38.412Z,12.28
2018-09-23T08:35:38.342Z,12.22
2018-09-23T08:36:38.291Z,12.17
2018-09-23T08:37:38.237Z,12.20
2018-09-23T08:38:38.200Z,12.09
2018-09-23T08:39:38.174Z,12.17
2018-09-23T08:40:38.090Z,12.20
2018-09-23T08:41:38.040Z,12.22
2018-09-23T08:42:37.986Z,12.24
2018-09-23T08:43:37.934Z,12.10
2018-09-23T08:44:37.912Z,12.10
2018-09-23T08:45:37.837Z,12.14
2018-09-23T08:46:37.783Z,12.22
2018-09-23T08:47:37.757Z,12.18
2018-09-23T08:48:37.695Z,12.20
2018-09-23T08:49:37.663Z,12.25
2018-09-23T08:50:37.589Z,12.28
2018-09-23T08:51:37.594Z,12.25
2018-09-23T08:52:37.496Z,12.28
2018-09-23T08:53:37.452Z,12.27
2018-09-23T08:54:37.416Z,12.17
2018-09-23T08:55:37.328Z,12.28
2018-09-23T08:56:37.328Z,12.24
2018-09-23T08:57:37.259Z,12.36
2018-09-23T08:58:37.181Z,12.42
2018-09-23T08:59:37.158Z,12.43
2018-09-23T09:00:37.085Z,12.39
2018-09-23T09:01:37.033Z,12.38
2018-09-23T09:02:36.978Z,12.35
2018-09-23T09:03:36.949Z,12.35
2018-09-23T09:04:36.902Z,12.38
2018-09-23T09:05:36.830Z,12.43
2018-09-23T09:06:36.781Z,12.39
2018-09-23T09:07:36.727Z,12.39
2018-09-23T09:08:36.681Z,12.38
2018-09-23T09:09:36.678Z,12.39
2018-09-23T09:10:36.588Z,12.38
2018-09-23T09:11:36.544Z,12.38
2018-09-23T09:12:36.481Z,12.42
2018-09-23T09:13:36.427Z,12.42
2018-09-23T09:14:36.373Z,12.40
2018-09-23T09:15:36.405Z,12.40
2018-09-23T09:16:36.285Z,12.47
2018-09-23T09:17:36.231Z,12.46
2018-09-23T09:18:36.221Z,12.51
2018-09-23T09:19:36.124Z,12.40
2018-09-23T09:20:36.123Z,12.54
2018-09-23T09:21:36.050Z,12.53
2018-09-23T09:22:35.977Z,12.51
2018-09-23T09:23:35.920Z,12.61
2018-09-23T09:24:35.883Z,12.63
2018-09-23T09:25:35.863Z,12.57
2018-09-23T09:26:35.825Z,12.61
2018-09-23T09:27:35.731Z,12.64
2018-09-23T09:28:35.678Z,12.60
2018-09-23T09:29:35.629Z,12.57
2018-09-23T09:30:35.599Z,12.57
2018-09-23T09:31:35.534Z,12.60
2018-09-23T09:32:35.500Z,12.64
2018-09-23T09:33:35.443Z,12.54
2018-09-23T09:34:35.387Z,12.53
2018-09-23T09:35:35.369Z,12.46
2018-09-23T09:36:35.274Z,12.50
2018-09-23T09:37:35.223Z,12.40
2018-09-23T09:38:35.250Z,12.40
2018-09-23T09:39:35.137Z,12.40
2018-09-23T09:40:35.100Z,12.42
2018-09-23T09:41:35.031Z,12.38
2018-09-23T09:42:34.979Z,12.42
2018-09-23T09:43:34.916Z,12.47
2018-09-23T09:44:34.898Z,12.45
2018-09-23T09:45:34.863Z,12.35
2018-09-23T09:46:34.780Z,12.39
2018-09-23T09:47:34.722Z,12.40
2018-09-23T09:48:34.678Z,12.35
2018-09-23T09:49:34.615Z,12.35
2018-09-23T09:50:34.604Z,12.43
2018-09-23T09:51:34.521Z,12.40
2018-09-23T09:52:34.472Z,12.51
2018-09-23T09:53:34.509Z,12.50
2018-09-23T09:54:34.367Z,12.46
2018-09-23T09:55:34.355Z,12.39
2018-09-23T09:56:34.263Z,12.42
2018-09-23T09:57:34.252Z,12.45
2018-09-23T09:58:34.177Z,12.47
2018-09-23T09:59:34.143Z,12.35
2018-09-23T10:00:34.108Z,12.40
2018-09-23T10:01:34.021Z,12.25
2018-09-23T10:02:33.973Z,12.39
2018-09-23T10:03:33.921Z,12.30
2018-09-23T10:04:33.867Z,12.40
2018-09-23T10:05:33.832Z,12.38
2018-09-23T10:06:33.756Z,12.38
2018-09-23T10:07:33.712Z,12.33
2018-09-23T10:08:33.668Z,12.36
2018-09-23T10:09:33.620Z,12.22
2018-09-23T10:10:33.624Z,12.25
2018-09-23T10:11:33.538Z,12.39
2018-09-23T10:12:33.466Z,12.39
2018-09-23T10:13:33.417Z,12.28
2018-09-23T10:14:33.376Z,12.38
2018-09-23T10:15:33.325Z,12.25
2018-09-23T10:16:33.292Z,12.22
2018-09-23T10:17:33.210Z,12.27
2018-09-23T10:18:33.157Z,12.32
2018-09-23T10:19:33.104Z,12.36
2018-09-23T10:20:33.090Z,12.40
2018-09-23T10:21:33.004Z,12.43
2018-09-23T10:22:33.038Z,12.42
2018-09-23T10:23:33.077Z,12.43
2018-09-23T10:24:32.850Z,12.40
2018-09-23T10:25:32.839Z,12.36
2018-09-23T10:26:32.749Z,12.39
2018-09-23T10:27:32.702Z,12.35
2018-09-23T10:28:32.657Z,12.42
2018-09-23T10:29:32.600Z,12.22
2018-09-23T10:30:32.585Z,12.22
2018-09-23T10:31:32.497Z,12.22
2018-09-23T10:32:32.450Z,12.24
2018-09-23T10:33:32.402Z,12.30
2018-09-23T10:34:32.352Z,12.25
2018-09-23T10:35:32.354Z,12.22
2018-09-23T10:36:32.254Z,12.27
2018-09-23T10:37:32.195Z,12.22
2018-09-23T10:38:32.150Z,12.24
2018-09-23T10:39:32.093Z,12.24
2018-09-23T10:40:32.041Z,12.22
2018-09-23T10:41:32.018Z,12.13
2018-09-23T10:42:31.940Z,12.14
2018-09-23T10:43:31.895Z,12.10
2018-09-23T10:44:31.848Z,11.97
2018-09-23T10:45:31.792Z,12.05
2018-09-23T10:46:31.766Z,12.09
2018-09-23T10:47:31.693Z,12.07
2018-09-23T10:48:31.638Z,12.00
2018-09-23T10:49:31.593Z,12.05
2018-09-23T10:50:31.538Z,12.05
2018-09-23T10:51:31.505Z,12.03
2018-09-23T10:52:31.433Z,12.00
2018-09-23T10:53:31.389Z,12.10
2018-09-23T10:54:31.334Z,12.02
2018-09-23T10:55:31.304Z,11.95
2018-09-23T10:56:31.255Z,11.87
2018-09-23T10:57:31.186Z,11.91
2018-09-23T10:58:31.129Z,11.88
2018-09-23T10:59:31.166Z,11.88
2018-09-23T11:00:31.024Z,11.83
2018-09-23T11:01:31.001Z,11.96
2018-09-23T11:02:30.931Z,11.86
2018-09-23T11:03:30.880Z,11.86
2018-09-23T11:04:30.827Z,11.83
2018-09-23T11:05:30.772Z,11.81
2018-09-23T11:06:30.754Z,11.80
2018-09-23T11:07:30.681Z,11.83
2018-09-23T11:08:30.615Z,11.74
2018-09-23T11:09:30.567Z,11.66
2018-09-23T11:10:30.525Z,11.71
2018-09-23T11:11:30.492Z,11.72
2018-09-23T11:12:30.417Z,11.68
2018-09-23T11:13:30.361Z,11.69
2018-09-23T11:14:30.314Z,11.62
2018-09-23T11:15:30.260Z,11.71
2018-09-23T11:16:30.239Z,11.72
2018-09-23T11:17:30.157Z,11.69
2018-09-23T11:18:30.109Z,11.54
2018-09-23T11:19:30.054Z,11.61
2018-09-23T11:20:30.003Z,11.65
2018-09-23T11:21:29.976Z,11.58
2018-09-23T11:22:29.901Z,11.48
2018-09-23T11:23:29.938Z,11.59
2018-09-23T11:24:29.804Z,11.48
2018-09-23T11:25:29.750Z,11.63
2018-09-23T11:26:29.734Z,11.50
2018-09-23T11:27:29.648Z,11.54
2018-09-23T11:28:29.663Z,11.48
2018-09-23T11:29:29.553Z,11.58
2018-09-23T11:30:29.491Z,11.44
2018-09-23T11:31:29.461Z,11.41
2018-09-23T11:32:29.389Z,11.41
2018-09-23T11:33:29.347Z,11.43
2018-09-23T11:34:29.294Z,11.41
2018-09-23T11:35:29.236Z,11.38
2018-09-23T11:36:29.212Z,11.33
2018-09-23T11:37:29.129Z,11.33
2018-09-23T11:38:29.079Z,11.33
2018-09-23T11:39:29.027Z,11.38
2018-09-23T11:40:28.981Z,11.30
2018-09-23T11:41:28.950Z,11.32
2018-09-23T11:42:28.876Z,11.33
2018-09-23T11:43:28.822Z,11.35
2018-09-23T11:44:28.773Z,11.35
2018-09-23T11:45:28.720Z,11.32
2018-09-23T11:46:28.717Z,11.26
2018-09-23T11:47:28.616Z,11.25
2018-09-23T11:48:28.573Z,11.26
2018-09-23T11:49:28.520Z,11.26
2018-09-23T11:50:28.464Z,11.32
2018-09-23T11:51:28.411Z,11.28
2018-09-23T11:52:28.405Z,11.22
2018-09-23T11:53:28.311Z,11.19
2018-09-23T11:54:28.256Z,11.19
2018-09-23T11:55:28.216Z,11.26
2018-09-23T11:56:28.157Z,11.20
2018-09-23T11:57:28.123Z,11.14
2018-09-23T11:58:28.049Z,11.28
2018-09-23T11:59:27.998Z,11.25
2018-09-23T12:00:27.948Z,11.25
2018-09-23T12:01:27.895Z,11.22
2018-09-23T12:02:27.873Z,11.22
2018-09-23T12:03:27.793Z,11.28
2018-09-23T12:04:27.808Z,11.20
2018-09-23T12:05:27.698Z,11.23
2018-09-23T12:06:27.647Z,11.19
2018-09-23T12:07:27.615Z,11.29
2018-09-23T12:08:27.539Z,11.19
2018-09-23T12:09:27.484Z,11.23
2018-09-23T12:10:27.518Z,11.20
2018-09-23T12:11:27.383Z,11.14
2018-09-23T12:12:27.352Z,11.20
2018-09-23T12:13:27.281Z,11.25
2018-09-23T12:14:27.227Z,11.28
2018-09-23T12:15:27.178Z,11.23
2018-09-23T12:16:27.146Z,11.22
2018-09-23T12:17:27.091Z,11.20
2018-09-23T12:18:27.021Z,11.17
2018-09-23T12:19:26.969Z,11.14
2018-09-23T12:20:26.921Z,11.23
2018-09-23T12:21:26.866Z,11.25
2018-09-23T12:22:26.839Z,11.11
2018-09-23T12:23:26.759Z,11.14
2018-09-23T12:24:26.713Z,11.03
2018-09-23T12:25:26.679Z,11.01
2018-09-23T12:26:26.606Z,11.10
2018-09-23T12:27:26.595Z,11.08
2018-09-23T12:28:26.507Z,11.07
2018-09-23T12:29:26.480Z,11.11
2018-09-23T12:30:27.424Z,11.01
2018-09-23T12:31:26.349Z,11.01
2018-09-23T12:32:26.345Z,11.08
2018-09-23T12:33:26.239Z,10.92
2018-09-23T12:34:26.200Z,10.96
2018-09-23T12:35:26.142Z,10.89
2018-09-23T12:36:26.090Z,10.87
2018-09-23T12:37:26.064Z,10.85
2018-09-23T12:38:25.990Z,10.86
2018-09-23T12:39:25.989Z,10.90
2018-09-23T12:40:25.905Z,10.77
2018-09-23T12:41:25.830Z,10.86
2018-09-23T12:42:25.802Z,10.85
2018-09-23T12:43:25.726Z,10.74
2018-09-23T12:44:25.718Z,10.82
2018-09-23T12:45:25.626Z,10.79
2018-09-23T12:46:25.575Z,10.75
2018-09-23T12:47:25.543Z,10.67
2018-09-23T12:48:25.470Z,10.68
2018-09-23T12:49:25.414Z,10.74
2018-09-23T12:50:25.362Z,10.71
2018-09-23T12:51:25.314Z,10.71